Time;durP1;ratioP1;P1;durP2;ratioP2;P2;SDS_P1;SDS_P2;PMS_P1;PMS_P2;Temp;Humidity;BMP_temperature;BMP_pressure;BME280_temperature;BME280_humidity;BME280_pressure;Samples;Min_cycle;Max_cycle;Signal;HPM_P1;HPM_P2
2022/03/27 00:01:49;;;;;;;15.07;13.48;;;;;;;13.02;45.75;101436.44;10370946;28;20726;-62
2022/03/27 00:06:51;;;;;;;16.40;13.70;;;;;;;13.21;46.19;101476.06;10356049;28;20280;-61
2022/03/27 00:11:52;;;;;;;16.02;13.90;;;;;;;13.15;46.23;101476.50;10357001;28;20491;-62
2022/03/27 00:16:54;;;;;;;15.40;12.80;;;;;;;12.99;47.01;101461.56;10355194;28;20049;-61
2022/03/27 00:21:55;;;;;;;17.55;13.63;;;;;;;13.00;47.15;101467.75;10354703;28;20132;-62
2022/03/27 00:26:57;;;;;;;14.23;12.73;;;;;;;12.89;46.90;101452.50;10353666;28;20201;-62
2022/03/27 00:31:58;;;;;;;13.60;12.25;;;;;;;12.95;47.51;101473.44;10354827;28;20049;-62
2022/03/27 00:37:00;;;;;;;16.10;13.20;;;;;;;12.90;47.41;101464.91;10354202;28;20144;-62
2022/03/27 00:42:01;;;;;;;15.27;12.55;;;;;;;12.77;47.95;101453.38;10352448;28;20168;-61
2022/03/27 00:47:04;;;;;;;15.15;13.50;;;;;;;12.80;48.07;101464.69;10354696;28;20042;-62
2022/03/27 00:52:06;;;;;;;15.95;14.25;;;;;;;12.75;48.48;101458.00;10350892;28;20060;-62
2022/03/27 00:57:08;;;;;;;17.20;13.93;;;;;;;12.67;48.47;101448.69;10356061;28;20076;-61
2022/03/27 01:02:10;;;;;;;15.32;13.23;;;;;;;12.76;48.76;101452.53;10351267;28;20049;-63
2022/03/27 01:07:21;;;;;;;16.75;13.88;;;;;;;12.65;48.65;101442.59;10356315;28;20056;-61
2022/03/27 01:12:38;;;;;;;17.40;13.82;;;;;;;12.69;49.31;101449.44;10353661;28;20615;-61
2022/03/27 01:17:39;;;;;;;15.93;12.63;;;;;;;12.62;49.64;101444.63;10357125;28;20144;-61
2022/03/27 01:22:41;;;;;;;15.52;13.85;;;;;;;12.64;49.83;101448.91;10350745;28;20558;-61
2022/03/27 01:27:42;;;;;;;16.00;14.30;;;;;;;12.61;49.90;101449.13;10347831;28;20056;-61
2022/03/27 01:32:44;;;;;;;16.88;13.63;;;;;;;12.62;49.91;101434.78;10348961;28;20046;-60
2022/03/27 01:37:49;;;;;;;15.68;13.93;;;;;;;12.49;50.40;101417.91;10350312;28;20482;-61
2022/03/27 01:42:54;;;;;;;16.10;13.85;;;;;;;12.54;50.96;101435.31;10351261;28;20072;-61
2022/03/27 01:47:55;;;;;;;18.08;13.88;;;;;;;12.53;51.13;101430.09;10349110;28;20495;-61
2022/03/27 01:52:56;;;;;;;16.33;14.10;;;;;;;12.44;51.08;101414.72;10348337;28;20530;-61
2022/03/27 01:57:58;;;;;;;16.90;13.77;;;;;;;12.51;51.14;101424.03;10352101;28;20133;-61
2022/03/27 02:02:59;;;;;;;16.98;13.90;;;;;;;12.43;51.72;101413.00;10350871;28;20393;-61
2022/03/27 02:08:01;;;;;;;15.90;13.30;;;;;;;12.38;51.19;101399.97;10353187;28;20064;-61
2022/03/27 02:13:22;;;;;;;16.75;12.90;;;;;;;12.33;52.13;101400.31;10349638;28;20231;-60
2022/03/27 02:18:26;;;;;;;14.95;13.25;;;;;;;12.45;51.48;101416.44;10350450;28;20492;-61
2022/03/27 02:23:28;;;;;;;17.38;13.38;;;;;;;12.37;52.25;101412.47;10349491;28;20046;-61
2022/03/27 02:28:29;;;;;;;16.05;14.30;;;;;;;12.31;52.27;101420.94;10353926;28;20719;-60
2022/03/27 02:33:31;;;;;;;17.15;13.77;;;;;;;12.18;52.95;101398.69;10355484;28;20669;-60
2022/03/27 02:38:32;;;;;;;15.82;12.75;;;;;;;12.13;53.00;101406.16;10353137;28;20137;-61
2022/03/27 02:43:38;;;;;;;14.77;12.85;;;;;;;12.14;53.79;101434.56;10353819;28;20496;-62
2022/03/27 02:48:40;;;;;;;17.92;14.30;;;;;;;12.11;53.99;101416.09;10352366;28;20042;-61
2022/03/27 02:53:41;;;;;;;15.45;13.45;;;;;;;12.13;53.64;101424.84;10359657;28;20065;-61
2022/03/27 02:58:43;;;;;;;13.95;12.50;;;;;;;12.18;54.19;101414.72;10358677;28;20053;-61
2022/03/27 03:03:44;;;;;;;17.10;13.75;;;;;;;12.15;54.61;101426.44;10361406;28;20165;-61
2022/03/27 03:08:46;;;;;;;17.17;14.30;;;;;;;12.14;54.19;101431.91;10357293;28;20053;-62
2022/03/27 03:13:49;;;;;;;18.33;14.88;;;;;;;12.13;55.08;101427.50;10356697;28;20280;-61
2022/03/27 03:19:11;;;;;;;18.15;14.93;;;;;;;12.08;55.03;101425.16;10357786;28;20678;-61
2022/03/27 03:24:12;;;;;;;17.80;14.48;;;;;;;12.10;54.71;101414.38;10358920;28;20053;-62
2022/03/27 03:29:14;;;;;;;17.52;14.40;;;;;;;12.07;56.02;101419.94;10357941;28;20054;-61
2022/03/27 03:34:16;;;;;;;19.55;14.55;;;;;;;12.07;55.77;101418.13;10357794;28;20054;-61
2022/03/27 03:39:17;;;;;;;18.95;14.68;;;;;;;12.11;55.87;101419.59;10358730;28;20139;-62
2022/03/27 03:44:19;;;;;;;16.13;14.30;;;;;;;12.11;56.45;101421.44;10356711;28;20052;-61
2022/03/27 03:49:20;;;;;;;18.25;15.82;;;;;;;12.07;55.95;101422.59;10351137;28;20048;-62
2022/03/27 03:54:22;;;;;;;18.17;14.73;;;;;;;11.80;55.92;101384.31;10357472;28;20057;-62
2022/03/27 03:59:23;;;;;;;17.17;13.95;;;;;;;12.00;56.67;101423.00;10356167;28;20614;-62
2022/03/27 04:04:30;;;;;;;17.98;15.05;;;;;;;11.97;56.86;101423.22;10360103;28;20529;-61
2022/03/27 04:09:32;;;;;;;17.35;13.95;;;;;;;11.74;56.97;101398.06;10348395;28;20166;-62
2022/03/27 04:14:36;;;;;;;19.75;15.50;;;;;;;11.89;57.13;101430.00;10353856;28;20129;-60
2022/03/27 04:19:37;;;;;;;17.85;15.32;;;;;;;11.88;57.66;101434.50;10354247;28;20054;-61
2022/03/27 04:24:39;;;;;;;19.30;16.27;;;;;;;11.64;57.38;101407.66;10355903;28;20563;-60
2022/03/27 04:29:40;;;;;;;19.25;15.55;;;;;;;11.78;57.93;101428.06;10357147;28;20064;-60
2022/03/27 04:34:41;;;;;;;20.90;15.25;;;;;;;11.79;57.71;101435.97;10353337;28;20152;-60
2022/03/27 04:39:44;;;;;;;19.45;16.42;;;;;;;11.50;57.87;101395.25;10351305;28;20124;-60
2022/03/27 04:44:45;;;;;;;21.70;16.33;;;;;;;11.47;58.39;101403.44;10353130;28;20049;-60
2022/03/27 04:49:47;;;;;;;16.70;14.63;;;;;;;11.65;58.23;101444.88;10352009;28;20050;-61
2022/03/27 04:54:48;;;;;;;18.40;15.90;;;;;;;11.61;58.29;101442.53;10353792;28;20284;-60
2022/03/27 04:59:50;;;;;;;20.08;16.45;;;;;;;11.59;58.29;101447.09;10355772;28;20647;-61
2022/03/27 05:04:51;;;;;;;19.17;16.15;;;;;;;11.47;58.61;101446.09;10359701;28;20144;-61
2022/03/27 05:09:53;;;;;;;18.80;16.90;;;;;;;11.25;58.36;101418.16;10352011;28;20282;-61
2022/03/27 05:14:55;;;;;;;18.88;16.23;;;;;;;11.36;58.42;101444.13;10353803;28;20504;-61
2022/03/27 05:20:03;;;;;;;18.33;16.17;;;;;;;11.35;58.44;101452.22;10354176;28;20100;-61
2022/03/27 05:25:05;;;;;;;18.83;16.42;;;;;;;11.25;58.64;101447.47;10352111;28;20361;-61
2022/03/27 05:30:08;;;;;;;19.52;17.55;;;;;;;11.16;58.66;101453.41;10359447;28;20072;-61
2022/03/27 05:35:09;;;;;;;18.13;16.20;;;;;;;11.16;58.57;101453.41;10355804;28;20052;-61
2022/03/27 05:40:13;;;;;;;20.27;16.90;;;;;;;11.04;58.90;101439.06;10352887;28;20049;-61
2022/03/27 05:45:15;;;;;;;20.52;17.17;;;;;;;11.12;58.73;101457.22;10352127;28;20490;-62
2022/03/27 05:50:18;;;;;;;19.92;16.85;;;;;;;11.17;58.88;101464.91;10355252;28;20672;-62
2022/03/27 05:55:22;;;;;;;18.10;16.08;;;;;;;11.16;58.74;101465.88;10349081;28;20092;-62
2022/03/27 06:00:24;;;;;;;20.83;17.30;;;;;;;11.23;58.83;101469.84;10347643;28;20045;-61
2022/03/27 06:05:25;;;;;;;17.40;15.50;;;;;;;11.29;58.44;101469.47;10349551;28;20284;-61
2022/03/27 06:10:31;;;;;;;18.98;16.60;;;;;;;11.36;58.82;101476.09;10348697;28;20196;-62
2022/03/27 06:15:33;;;;;;;18.55;15.90;;;;;;;11.52;57.82;101478.66;10353421;28;20175;-62
2022/03/27 06:20:34;;;;;;;18.90;16.90;;;;;;;11.60;58.00;101489.66;10351038;28;20057;-61
2022/03/27 06:25:38;;;;;;;21.23;16.55;;;;;;;11.80;57.18;101499.03;10359089;28;20120;-62
2022/03/27 06:30:40;;;;;;;18.38;16.48;;;;;;;12.01;57.00;101495.94;10351860;28;20528;-62
2022/03/27 06:35:42;;;;;;;18.75;15.70;;;;;;;12.07;56.73;101498.19;10352371;28;20063;-62
2022/03/27 06:40:48;;;;;;;20.00;17.13;;;;;;;12.17;56.97;101493.06;10346489;28;20158;-62
2022/03/27 06:45:50;;;;;;;19.80;16.55;;;;;;;12.40;56.85;101493.31;10352598;28;20140;-61
2022/03/27 06:50:52;;;;;;;19.27;16.35;;;;;;;12.58;56.40;101489.41;10350213;28;20285;-62
2022/03/27 06:55:54;;;;;;;19.23;15.80;;;;;;;12.62;56.16;101466.84;10349900;28;20052;-62
2022/03/27 07:06:16;;;;;;;19.33;16.48;;;;;;;13.16;55.54;101491.59;10348060;28;20602;-61
2022/03/27 07:11:18;;;;;;;18.35;15.63;;;;;;;13.42;55.12;101495.06;10346609;28;20188;-62
2022/03/27 07:16:19;;;;;;;17.63;15.75;;;;;;;13.66;54.45;101499.59;10351966;28;20605;-61
2022/03/27 07:21:21;;;;;;;15.48;13.50;;;;;;;13.93;53.91;101507.38;10347215;28;20049;-62
2022/03/27 07:26:23;;;;;;;16.67;14.25;;;;;;;14.08;53.01;101500.91;10348483;28;20333;-62
2022/03/27 07:31:24;;;;;;;17.15;15.35;;;;;;;14.23;53.13;101493.53;10349850;28;20341;-61
2022/03/27 07:36:26;;;;;;;15.85;14.27;;;;;;;14.50;52.33;101495.91;10356423;28;20049;-61
2022/03/27 07:41:27;;;;;;;14.93;13.27;;;;;;;14.69;51.81;101499.84;10353445;28;20049;-60
2022/03/27 07:46:30;;;;;;;15.85;14.25;;;;;;;14.89;51.77;101500.13;10351099;28;20053;-61
2022/03/27 07:51:34;;;;;;;15.50;13.90;;;;;;;15.09;51.06;101502.06;10360630;28;20046;-61
2022/03/27 07:56:36;;;;;;;15.05;13.48;;;;;;;15.13;51.02;101459.75;10355089;28;20046;-61
2022/03/27 08:01:38;;;;;;;17.08;14.13;;;;;;;15.60;50.44;101499.78;10356048;28;20747;-60
2022/03/27 08:06:39;;;;;;;16.52;13.95;;;;;;;15.89;49.54;101500.94;10356966;28;20054;-61
2022/03/27 08:11:42;;;;;;;14.48;12.98;;;;;;;16.16;49.09;101494.25;10357643;28;20121;-61
2022/03/27 08:16:44;;;;;;;16.75;15.05;;;;;;;16.13;48.84;101464.13;10359819;28;20766;-61
2022/03/27 08:21:46;;;;;;;16.40;14.48;;;;;;;16.55;48.44;101478.38;10354660;28;20049;-61
2022/03/27 08:26:56;;;;;;;15.55;13.90;;;;;;;16.82;47.96;101490.41;10355948;28;20111;-61
2022/03/27 08:32:00;;;;;;;16.17;14.48;;;;;;;16.93;47.47;101459.91;10353180;28;20056;-61
2022/03/27 08:37:04;;;;;;;16.63;12.65;;;;;;;17.25;46.93;101489.34;10353332;28;20520;-61
2022/03/27 08:42:07;;;;;;;13.77;12.32;;;;;;;17.57;46.73;101488.28;10352264;28;20057;-61
2022/03/27 08:47:17;;;;;;;15.13;13.55;;;;;;;17.90;45.81;101488.91;10353954;28;20704;-61
2022/03/27 08:52:21;;;;;;;15.27;13.68;;;;;;;18.03;45.37;101499.41;10352242;28;20048;-61
2022/03/27 08:57:24;;;;;;;;;;;;;;;18.19;45.01;101493.44;10354838;28;20394;-61
2022/03/27 09:02:25;;;;;;;14.95;13.45;;;;;;;18.50;44.37;101493.25;10352089;28;20644;-61
2022/03/27 09:07:30;;;;;;;15.93;13.88;;;;;;;19.00;43.58;101484.88;10357528;28;20061;-61
2022/03/27 09:12:33;;;;;;;14.93;13.20;;;;;;;19.36;42.79;101487.66;10357116;28;20134;-62
2022/03/27 09:17:54;;;;;;;14.90;13.40;;;;;;;19.86;41.37;101496.31;10355602;28;20132;-61
2022/03/27 09:22:56;;;;;;;16.23;14.63;;;;;;;20.25;40.56;101509.50;10357002;28;20275;-61
2022/03/27 09:27:57;;;;;;;14.15;12.82;;;;;;;20.55;40.19;101500.09;10357687;28;20061;-62
2022/03/27 09:32:58;;;;;;;15.10;13.52;;;;;;;20.92;39.18;101500.84;10353902;28;20124;-62
2022/03/27 09:38:11;;;;;;;14.88;13.48;;;;;;;21.23;38.78;101486.75;10355652;28;20053;-61
2022/03/27 09:43:15;;;;;;;15.67;14.13;;;;;;;21.50;37.97;101464.88;10349296;28;20121;-60
2022/03/27 09:48:16;;;;;;;15.68;13.85;;;;;;;21.63;37.77;101468.97;10351350;28;20052;-62
2022/03/27 09:53:19;;;;;;;15.70;14.20;;;;;;;21.94;36.88;101465.63;10355584;28;20126;-62
2022/03/27 09:58:32;;;;;;;;;;;;;;;22.54;35.46;101464.41;10356126;28;20116;-60
2022/03/27 10:03:34;;;;;;;15.27;13.68;;;;;;;22.76;34.93;101451.97;10353958;28;20375;-60
2022/03/27 10:08:35;;;;;;;15.25;13.40;;;;;;;23.22;32.45;101414.09;10353017;28;20070;-61
2022/03/27 10:13:37;;;;;;;15.15;13.70;;;;;;;24.11;31.70;101446.25;10359168;28;20511;-61
2022/03/27 10:18:38;;;;;;;15.25;13.75;;;;;;;25.99;28.76;101405.88;10350327;28;20056;-62
2022/03/27 10:23:43;;;;;;;15.13;13.75;;;;;;;30.19;23.36;101425.09;10350521;28;20117;-62
2022/03/27 10:28:48;;;;;;;14.40;13.02;;;;;;;31.43;21.42;101423.19;10351395;28;20042;-61
2022/03/27 10:33:50;;;;;;;14.73;13.32;;;;;;;30.97;21.58;101420.84;10353195;28;20457;-61
2022/03/27 10:39:18;;;;;;;13.30;12.10;;;;;;;29.08;23.57;101419.06;10355646;28;20159;-62
2022/03/27 10:44:28;;;;;;;13.30;11.93;;;;;;;29.04;24.37;101412.34;10350376;28;20045;-61
2022/03/27 10:49:29;;;;;;;13.65;12.25;;;;;;;30.81;21.21;101394.81;10348230;28;20077;-62
2022/03/27 10:54:31;;;;;;;14.15;12.85;;;;;;;34.36;17.58;101398.88;10343838;28;20061;-61
2022/03/27 10:59:42;;;;;;;13.27;11.88;;;;;;;36.50;14.72;101391.19;10339496;28;20042;-61
2022/03/27 11:04:44;;;;;;;11.75;10.55;;;;;;;38.65;12.99;101384.88;10337611;28;20485;-62
2022/03/27 11:09:46;;;;;;;10.88;9.68;;;;;;;39.75;11.75;101351.22;10338286;28;20041;-62
2022/03/27 11:15:06;;;;;;;10.40;9.55;;;;;;;40.51;11.27;101369.38;10346248;28;20144;-63
2022/03/27 11:20:10;;;;;;;9.65;8.88;;;;;;;42.28;10.98;101361.41;10347792;28;20083;-61
2022/03/27 11:25:41;;;;;;;9.52;8.77;;;;;;;42.96;10.13;101328.03;10347837;28;20060;-61
2022/03/27 11:30:53;;;;;;;9.98;8.90;;;;;;;42.92;9.67;101347.41;10343765;28;20137;-62
2022/03/27 11:36:00;;;;;;;10.40;9.45;;;;;;;43.68;9.83;101345.81;10345650;28;20140;-61
2022/03/27 11:41:43;;;;;;;9.32;8.60;;;;;;;43.88;9.82;101339.66;10343349;28;20471;-62
2022/03/27 11:46:48;;;;;;;9.30;8.32;;;;;;;43.20;9.19;101336.94;10344412;28;20045;-62
2022/03/27 11:52:06;;;;;;;8.57;7.78;;;;;;;42.33;10.10;101334.19;10343011;28;20141;-62
2022/03/27 11:57:09;;;;;;;8.02;7.30;;;;;;;43.88;9.26;101317.22;10337684;28;20050;-62
2022/03/27 12:02:11;;;;;;;8.70;8.00;;;;;;;44.31;8.82;101329.75;10347938;28;20144;-62
2022/03/27 12:07:13;;;;;;;8.35;7.72;;;;;;;44.67;8.11;101325.84;10342019;28;20064;-62
2022/03/27 12:12:14;;;;;;;7.80;7.20;;;;;;;44.16;8.51;101318.94;10338693;28;20049;-62
2022/03/27 12:17:15;;;;;;;7.35;6.75;;;;;;;44.69;8.30;101317.09;10343773;28;20401;-62
2022/03/27 12:22:31;;;;;;;7.85;7.13;;;;;;;45.02;8.04;101320.22;10342756;28;20057;-62
2022/03/27 12:32:57;;;;;;;6.60;5.88;;;;;;;45.27;8.05;101282.00;10343375;28;20078;-63
2022/03/27 12:37:59;;;;;;;7.15;6.57;;;;;;;45.91;7.55;101301.94;10343935;28;20080;-64
2022/03/27 12:43:13;;;;;;;8.18;7.40;;;;;;;46.43;8.19;101283.91;10344951;28;20056;-64
2022/03/27 12:48:16;;;;;;;7.65;7.03;;;;;;;46.72;7.80;101285.81;10339207;28;20064;-64
2022/03/27 12:53:18;;;;;;;7.82;7.10;;;;;;;45.95;8.07;101272.81;10340068;28;20049;-65
2022/03/27 12:58:32;;;;;;;8.73;8.00;;;;;;;43.20;9.44;101264.13;10340262;28;20591;-65
2022/03/27 13:03:36;;;;;;;9.40;7.50;;;;;;;42.66;9.65;101264.06;10343370;28;20059;-66
2022/03/27 13:08:40;;;;;;;8.75;7.57;;;;;;;43.16;9.94;101251.09;10343260;28;20045;-64
2022/03/27 13:13:43;;;;;;;8.48;7.78;;;;;;;43.65;9.75;101249.19;10342981;28;20053;-64
2022/03/27 13:19:00;;;;;;;7.80;6.93;;;;;;;43.28;9.98;101211.28;10340173;28;20049;-66
2022/03/27 13:24:05;;;;;;;7.88;7.28;;;;;;;42.96;10.22;101235.63;10343918;28;20042;-61
2022/03/27 13:29:07;;;;;;;8.35;7.75;;;;;;;40.22;11.99;101234.50;10346763;28;20572;-65
2022/03/27 13:34:11;;;;;;;7.82;7.22;;;;;;;36.44;15.00;101233.16;10340836;28;20054;-63
2022/03/27 13:39:13;;;;;;;8.98;8.27;;;;;;;34.06;17.28;101209.50;10339899;28;20053;-63
2022/03/27 13:44:18;;;;;;;9.00;8.20;;;;;;;32.24;19.36;101222.53;10337014;28;20361;-63
2022/03/27 13:49:21;;;;;;;7.80;7.00;;;;;;;31.18;20.15;101193.19;10342376;28;20053;-65
2022/03/27 13:54:23;;;;;;;9.55;8.73;;;;;;;31.02;21.00;101209.31;10341246;28;20647;-63
2022/03/27 13:59:24;;;;;;;9.73;8.80;;;;;;;30.29;21.87;101211.19;10339305;28;20045;-59
2022/03/27 14:04:26;;;;;;;9.50;8.73;;;;;;;29.30;23.09;101215.88;10343469;28;20081;-62
2022/03/27 14:09:27;;;;;;;9.07;8.18;;;;;;;28.98;23.38;101211.25;10338769;28;20064;-61
2022/03/27 14:14:29;;;;;;;9.50;8.60;;;;;;;28.70;23.28;101193.31;10336853;28;20049;-63
2022/03/27 14:19:30;;;;;;;8.02;7.10;;;;;;;28.25;24.17;101189.78;10340552;28;20050;-63
2022/03/27 14:24:31;;;;;;;9.35;8.57;;;;;;;27.54;24.96;101189.59;10336038;28;20049;-63
2022/03/27 14:29:33;;;;;;;8.85;8.05;;;;;;;27.25;26.44;101179.91;10338222;28;20129;-60
2022/03/27 14:34:35;;;;;;;8.23;7.43;;;;;;;26.85;26.17;101180.78;10341369;28;20058;-61
2022/03/27 14:39:36;;;;;;;;;;;;;;;26.52;27.03;101184.25;10337464;28;21401;-60
2022/03/27 14:44:38;;;;;;;8.88;8.10;;;;;;;26.17;27.46;101178.09;10343125;28;19935;-61
2022/03/27 14:49:40;;;;;;;8.88;7.55;;;;;;;25.94;28.09;101165.56;10348653;28;20058;-60
2022/03/27 15:00:02;;;;;;;8.85;7.95;;;;;;;25.10;29.09;101156.47;10344914;28;20049;-61
2022/03/27 15:05:05;;;;;;;7.40;6.72;;;;;;;24.83;29.53;101144.47;10350644;28;20151;-61
2022/03/27 15:10:07;;;;;;;6.97;6.35;;;;;;;24.56;30.24;101155.13;10339523;28;20182;-60
2022/03/27 15:15:10;;;;;;;7.35;6.75;;;;;;;24.25;30.88;101153.53;10344326;28;20053;-61
2022/03/27 15:20:12;;;;;;;7.43;6.70;;;;;;;23.77;31.30;101096.03;10347267;28;20226;-62
2022/03/27 15:25:13;;;;;;;6.32;5.72;;;;;;;23.51;32.15;101110.09;10348785;28;20144;-61
2022/03/27 15:30:18;;;;;;;5.75;5.22;;;;;;;23.61;32.08;101144.13;10347390;28;20066;-62
2022/03/27 15:35:20;;;;;;;8.43;6.40;;;;;;;23.25;32.61;101131.25;10347101;28;20053;-60
2022/03/27 15:40:21;;;;;;;6.88;5.63;;;;;;;23.23;32.86;101127.06;10350596;28;20148;-61
2022/03/27 15:45:23;;;;;;;5.60;5.10;;;;;;;22.60;33.85;101124.56;10353629;28;20189;-60
2022/03/27 15:50:26;;;;;;;5.10;4.60;;;;;;;22.45;33.52;101091.94;10350466;28;20060;-62
2022/03/27 15:55:28;;;;;;;7.13;6.03;;;;;;;22.68;33.61;101124.47;10350593;28;20054;-64
2022/03/27 16:00:30;;;;;;;6.47;4.82;;;;;;;22.67;33.50;101125.53;10375407;28;20057;-59
2022/03/27 16:05:32;;;;;;;5.97;4.95;;;;;;;22.67;34.14;101130.94;10359012;28;20501;-60
2022/03/27 16:10:34;;;;;;;5.88;5.00;;;;;;;22.49;34.20;101125.81;10346319;28;20056;-60
2022/03/27 16:15:36;;;;;;;5.47;4.87;;;;;;;22.51;34.52;101131.91;10350697;28;20053;-60
2022/03/27 16:20:37;;;;;;;6.25;4.22;;;;;;;22.13;34.53;101095.69;10346022;28;20136;-60
2022/03/27 16:25:39;;;;;;;8.35;4.53;;;;;;;22.17;34.77;101130.41;10346023;28;20114;-60
2022/03/27 16:30:41;;;;;;;7.28;4.78;;;;;;;21.96;35.17;101132.88;10342169;28;21659;-61
2022/03/27 16:35:43;;;;;;;5.68;5.15;;;;;;;21.82;35.94;101129.06;10344472;28;20049;-61
2022/03/27 16:40:50;;;;;;;5.82;4.47;;;;;;;21.68;36.36;101122.53;10345924;28;20049;-63
2022/03/27 16:45:53;;;;;;;5.75;4.97;;;;;;;21.28;36.64;101094.53;10348056;28;20131;-62
2022/03/27 16:50:54;;;;;;;4.55;4.15;;;;;;;21.20;36.93;101095.41;10337718;28;20053;-62
2022/03/27 16:55:56;;;;;;;5.03;4.63;;;;;;;21.05;36.84;101087.13;10333862;28;20470;-62
2022/03/27 17:00:57;;;;;;;4.32;3.92;;;;;;;20.98;36.95;101094.25;10340181;28;20140;-62
2022/03/27 17:05:59;;;;;;;9.57;4.55;;;;;;;20.93;37.23;101121.00;10338120;28;20149;-61
2022/03/27 17:11:01;;;;;;;6.15;4.53;;;;;;;20.62;37.87;101089.16;10337790;28;20860;-61
2022/03/27 17:16:04;;;;;;;5.85;4.00;;;;;;;20.64;38.21;101123.16;10339871;28;20048;-61
2022/03/27 17:21:08;;;;;;;3.72;3.42;;;;;;;20.26;38.21;101087.63;10339300;28;20132;-61
2022/03/27 17:26:09;;;;;;;4.22;3.65;;;;;;;20.29;39.48;101116.19;10337500;28;20647;-60
2022/03/27 17:31:11;;;;;;;5.45;4.18;;;;;;;20.17;39.25;101117.50;10335284;28;20053;-59
2022/03/27 17:36:13;;;;;;;5.47;4.13;;;;;;;20.05;39.54;101119.69;10337384;28;20715;-60
2022/03/27 17:41:15;;;;;;;5.60;3.92;;;;;;;20.00;39.95;101122.88;10334827;28;20053;-61
2022/03/27 17:46:16;;;;;;;6.07;3.92;;;;;;;19.83;40.36;101121.13;10337519;28;20432;-61
2022/03/27 17:51:18;;;;;;;4.57;4.18;;;;;;;19.70;40.64;101126.97;10338144;28;20068;-60
2022/03/27 17:56:20;;;;;;;7.43;3.90;;;;;;;19.58;40.28;101135.34;10340575;28;21381;-62
2022/03/27 18:01:22;;;;;;;4.95;3.55;;;;;;;19.43;41.40;101137.78;10339243;28;20060;-62
2022/03/27 18:06:24;;;;;;;4.90;4.25;;;;;;;19.30;41.43;101131.97;10335190;28;20064;-61
2022/03/27 18:11:25;;;;;;;6.32;4.38;;;;;;;19.15;42.36;101136.25;10335268;28;20059;-63
2022/03/27 18:16:27;;;;;;;5.22;4.75;;;;;;;19.05;42.86;101139.03;10334046;28;20103;-62
2022/03/27 18:21:28;;;;;;;5.05;4.40;;;;;;;18.96;42.23;101135.47;10337007;28;20053;-63
2022/03/27 18:26:30;;;;;;;5.55;4.97;;;;;;;18.78;43.22;101145.38;10334663;28;20072;-63
2022/03/27 18:31:31;;;;;;;6.35;5.50;;;;;;;18.66;43.73;101153.72;10336515;28;20133;-62
2022/03/27 18:36:35;;;;;;;5.68;4.35;;;;;;;18.56;44.07;101155.66;10336917;28;20054;-61
2022/03/27 18:41:37;;;;;;;5.65;4.30;;;;;;;18.44;44.66;101152.31;10334047;28;21008;-66
2022/03/27 18:46:41;;;;;;;5.97;5.38;;;;;;;18.36;44.63;101169.25;10334538;28;20081;-64
2022/03/27 18:51:42;;;;;;;5.85;5.35;;;;;;;18.20;45.70;101166.38;10338493;28;20352;-63
2022/03/27 18:56:45;;;;;;;6.68;6.07;;;;;;;18.08;45.86;101168.44;10340851;28;20155;-62
2022/03/27 19:01:47;;;;;;;5.95;5.35;;;;;;;18.04;46.00;101179.66;10338681;28;20172;-61
2022/03/27 19:06:48;;;;;;;8.02;7.22;;;;;;;17.85;46.47;101167.97;10334590;28;20093;-62
2022/03/27 19:11:51;;;;;;;8.13;6.63;;;;;;;17.69;47.16;101165.06;10337632;28;20068;-64
2022/03/27 19:16:53;;;;;;;7.82;6.25;;;;;;;17.63;47.21;101170.03;10334849;28;20776;-62
2022/03/27 19:21:55;;;;;;;7.05;6.18;;;;;;;17.56;47.42;101166.22;10338603;28;20053;-66
2022/03/27 19:26:56;;;;;;;6.05;5.47;;;;;;;17.52;47.22;101169.34;10334590;28;20053;-62
2022/03/27 19:31:58;;;;;;;6.70;6.10;;;;;;;17.39;47.83;101170.53;10338512;28;20045;-62
2022/03/27 19:36:59;;;;;;;6.75;6.10;;;;;;;17.35;47.53;101165.59;10343889;28;20483;-62
2022/03/27 19:42:01;;;;;;;6.95;6.18;;;;;;;17.00;48.31;101132.13;10346265;28;20550;-61
2022/03/27 19:47:02;;;;;;;7.25;6.55;;;;;;;17.12;48.70;101165.91;10343300;28;20190;-61
2022/03/27 19:52:04;;;;;;;6.43;5.82;;;;;;;17.17;49.27;101152.88;10348366;28;20482;-63
2022/03/27 19:57:05;;;;;;;8.75;6.15;;;;;;;17.37;49.07;101174.34;10348819;28;20056;-63
2022/03/27 20:02:08;;;;;;;5.60;5.10;;;;;;;17.51;48.32;101176.59;10343508;28;20765;-63
2022/03/27 20:07:10;;;;;;;6.38;5.88;;;;;;;17.52;48.56;101183.69;10344485;28;20081;-62
2022/03/27 20:12:11;;;;;;;7.25;6.05;;;;;;;17.53;47.97;101179.97;10340692;28;20837;-62
2022/03/27 20:17:13;;;;;;;6.43;5.70;;;;;;;17.52;48.05;101174.75;10346362;28;20443;-63
2022/03/27 20:22:14;;;;;;;6.53;5.82;;;;;;;17.48;47.75;101183.09;10342922;28;20050;-63
2022/03/27 20:27:16;;;;;;;7.47;6.35;;;;;;;17.17;48.45;101179.78;10338615;28;20054;-62
2022/03/27 20:32:19;;;;;;;7.13;5.80;;;;;;;16.95;48.98;101184.47;10334030;28;20227;-63
2022/03/27 20:37:22;;;;;;;5.93;5.43;;;;;;;16.80;49.31;101185.88;10335252;28;20083;-63
2022/03/27 20:42:24;;;;;;;6.55;5.95;;;;;;;16.66;49.99;101175.53;10338250;28;20131;-61
2022/03/27 20:47:27;;;;;;;6.38;5.78;;;;;;;16.59;50.04;101186.00;10338303;28;20050;-62
2022/03/27 20:52:29;;;;;;;6.97;6.20;;;;;;;16.46;50.38;101190.81;10336603;28;20055;-63
2022/03/27 20:57:30;;;;;;;7.03;6.30;;;;;;;16.38;50.61;101197.72;10347760;28;20164;-64
2022/03/27 21:02:32;;;;;;;8.15;5.57;;;;;;;16.32;50.73;101187.53;10352999;28;20077;-63
2022/03/27 21:07:34;;;;;;;7.70;6.93;;;;;;;16.26;50.98;101194.28;10351762;28;20542;-63
2022/03/27 21:12:35;;;;;;;7.47;6.78;;;;;;;16.17;51.28;101192.44;10343725;28;20111;-63
2022/03/27 21:17:37;;;;;;;7.57;6.88;;;;;;;16.09;51.57;101189.56;10354807;28;20156;-64
2022/03/27 21:22:38;;;;;;;6.07;5.57;;;;;;;16.00;51.67;101183.22;10349253;28;20148;-63
2022/03/27 21:27:40;;;;;;;7.28;6.57;;;;;;;15.99;51.53;101194.06;10351100;28;20053;-63
2022/03/27 21:32:41;;;;;;;6.75;6.15;;;;;;;15.92;51.80;101187.56;10352997;28;20075;-63
2022/03/27 21:37:43;;;;;;;6.35;5.60;;;;;;;15.86;51.85;101186.25;10352652;28;20050;-64
2022/03/27 21:42:44;;;;;;;6.82;6.13;;;;;;;15.75;52.25;101187.16;10356802;28;20496;-63
2022/03/27 21:47:46;;;;;;;6.25;5.65;;;;;;;15.72;52.15;101187.44;10348818;28;20059;-62
2022/03/27 21:52:49;;;;;;;7.72;6.53;;;;;;;15.63;52.66;101188.25;10347776;28;20050;-65
2022/03/27 21:57:51;;;;;;;6.95;5.95;;;;;;;15.55;52.66;101187.06;10349795;28;20057;-63
2022/03/27 22:02:52;;;;;;;6.90;6.20;;;;;;;15.46;53.21;101181.63;10349407;28;20053;-63
2022/03/27 22:07:54;;;;;;;6.35;5.75;;;;;;;15.43;52.96;101190.78;10348827;28;20555;-63
2022/03/27 22:12:58;;;;;;;6.95;6.20;;;;;;;15.40;53.20;101191.06;10348152;28;20207;-63
2022/03/27 22:18:00;;;;;;;7.10;6.38;;;;;;;15.32;53.31;101180.16;10348802;28;20046;-63
2022/03/27 22:23:09;;;;;;;6.40;5.82;;;;;;;15.27;53.57;101166.31;10351529;28;20669;-63
2022/03/27 22:28:11;;;;;;;7.07;6.37;;;;;;;15.23;53.51;101180.94;10347729;28;20045;-62
2022/03/27 22:33:13;;;;;;;6.93;5.65;;;;;;;15.17;53.81;101171.59;10351874;28;20220;-62
2022/03/27 22:38:15;;;;;;;7.35;6.72;;;;;;;15.03;54.02;101172.78;10353869;28;20133;-63
2022/03/27 22:43:16;;;;;;;6.93;6.22;;;;;;;15.03;54.26;101165.56;10350095;28;20085;-63
2022/03/27 22:48:18;;;;;;;7.55;6.85;;;;;;;15.00;54.46;101163.16;10353049;28;20097;-64
2022/03/27 22:53:19;;;;;;;6.93;6.22;;;;;;;14.95;54.64;101154.66;10348117;28;20136;-62
2022/03/27 22:58:21;;;;;;;8.73;7.80;;;;;;;14.67;54.82;101126.66;10355813;28;20141;-66
2022/03/27 23:03:22;;;;;;;8.18;6.18;;;;;;;14.84;54.73;101150.19;10350148;28;20336;-63
2022/03/27 23:08:24;;;;;;;7.38;6.70;;;;;;;14.77;54.79;101154.38;10357999;28;20594;-63
2022/03/27 23:13:25;;;;;;;7.68;6.97;;;;;;;14.77;54.93;101154.38;10359161;28;20069;-61
2022/03/27 23:18:27;;;;;;;7.32;6.40;;;;;;;14.61;54.89;101116.47;10358710;28;20038;-63